sensor_id;sensor_type;location;lat;lon;timestamp;pressure;altitude;pressure_sealevel;temperature;humidity
48390;BME280;34643;47.964;7.982;2023-02-19T00:02:58;97448.31;;;17.80;59.16
48390;BME280;34643;47.964;7.982;2023-02-19T00:07:58;97435.47;;;17.77;59.27
48390;BME280;34643;47.964;7.982;2023-02-19T00:12:58;97429.31;;;17.78;59.35
48390;BME280;34643;47.964;7.982;2023-02-19T00:17:58;97425.75;;;17.79;59.54
48390;BME280;34643;47.964;7.982;2023-02-19T00:22:58;97422.19;;;17.80;59.30
48390;BME280;34643;47.964;7.982;2023-02-19T00:27:59;97438.63;;;17.82;59.43
48390;BME280;34643;47.964;7.982;2023-02-19T00:32:59;97416.97;;;17.80;59.38
48390;BME280;34643;47.964;7.982;2023-02-19T00:37:59;97423.16;;;17.79;59.63
48390;BME280;34643;47.964;7.982;2023-02-19T00:43:00;97416.97;;;17.80;59.56
48390;BME280;34643;47.964;7.982;2023-02-19T00:48:00;97417.94;;;17.79;59.63
48390;BME280;34643;47.964;7.982;2023-02-19T00:53:00;97412.72;;;17.79;59.55
48390;BME280;34643;47.964;7.982;2023-02-19T00:58:00;97409.28;;;17.78;59.77
48390;BME280;34643;47.964;7.982;2023-02-19T01:03:01;97409.16;;;17.80;59.52
48390;BME280;34643;47.964;7.982;2023-02-19T01:08:01;97385.66;;;17.80;59.77
48390;BME280;34643;47.964;7.982;2023-02-19T01:13:01;97381.38;;;17.79;59.78
48390;BME280;34643;47.964;7.982;2023-02-19T01:18:01;97396.31;;;17.77;59.64
48390;BME280;34643;47.964;7.982;2023-02-19T01:23:02;97375.19;;;17.80;59.67
48390;BME280;34643;47.964;7.982;2023-02-19T01:28:02;97378.56;;;17.82;60.02
48390;BME280;34643;47.964;7.982;2023-02-19T01:33:03;97396.94;;;17.80;59.76
48390;BME280;34643;47.964;7.982;2023-02-19T01:38:03;97389.22;;;17.79;60.09
48390;BME280;34643;47.964;7.982;2023-02-19T01:43:04;97364.88;;;17.78;59.95
48390;BME280;34643;47.964;7.982;2023-02-19T01:53:08;97346.72;;;17.77;59.76
48390;BME280;34643;47.964;7.982;2023-02-19T01:58:11;97358.06;;;17.76;59.93
48390;BME280;34643;47.964;7.982;2023-02-19T02:03:11;97373.63;;;17.77;59.98
48390;BME280;34643;47.964;7.982;2023-02-19T02:08:12;97364.97;;;17.77;60.07
48390;BME280;34643;47.964;7.982;2023-02-19T02:13:32;97339.69;;;17.77;59.96
48390;BME280;34643;47.964;7.982;2023-02-19T02:18:42;97354.53;;;17.77;60.02
48390;BME280;34643;47.964;7.982;2023-02-19T02:23:52;97364.25;;;17.75;60.08
48390;BME280;34643;47.964;7.982;2023-02-19T02:34:29;97358.06;;;17.76;59.90
48390;BME280;34643;47.964;7.982;2023-02-19T02:39:33;97345.84;;;17.76;60.18
48390;BME280;34643;47.964;7.982;2023-02-19T02:44:35;97350.34;;;17.74;60.13
48390;BME280;34643;47.964;7.982;2023-02-19T02:49:36;97345.97;;;17.75;60.31
48390;BME280;34643;47.964;7.982;2023-02-19T02:54:56;97347.63;;;17.76;60.02
48390;BME280;34643;47.964;7.982;2023-02-19T03:00:05;97380.84;;;17.74;60.12
48390;BME280;34643;47.964;7.982;2023-02-19T03:05:07;97373.00;;;17.74;60.25
48390;BME280;34643;47.964;7.982;2023-02-19T03:10:29;97358.28;;;17.73;60.50
48390;BME280;34643;47.964;7.982;2023-02-19T03:15:35;97368.72;;;17.73;60.33
48390;BME280;34643;47.964;7.982;2023-02-19T03:20:56;97358.38;;;17.71;60.61
48390;BME280;34643;47.964;7.982;2023-02-19T03:25:57;97329.56;;;17.73;60.74
48390;BME280;34643;47.964;7.982;2023-02-19T03:31:16;97316.50;;;17.73;60.65
48390;BME280;34643;47.964;7.982;2023-02-19T03:36:17;97326.00;;;17.74;60.42
48390;BME280;34643;47.964;7.982;2023-02-19T03:41:35;97352.84;;;17.76;60.79
48390;BME280;34643;47.964;7.982;2023-02-19T03:46:49;97360.78;;;17.74;60.85
48390;BME280;34643;47.964;7.982;2023-02-19T03:57:20;97346.81;;;17.75;60.85
48390;BME280;34643;47.964;7.982;2023-02-19T04:02:31;97353.81;;;17.75;60.69
48390;BME280;34643;47.964;7.982;2023-02-19T04:07:34;97344.81;;;17.79;60.90
48390;BME280;34643;47.964;7.982;2023-02-19T04:12:38;97351.94;;;17.77;60.88
48390;BME280;34643;47.964;7.982;2023-02-19T04:18:26;97361.31;;;17.79;60.94
48390;BME280;34643;47.964;7.982;2023-02-19T04:23:00;97331.88;;;17.77;60.97
48390;BME280;34643;47.964;7.982;2023-02-19T04:28:01;97325.09;;;17.75;61.31
48390;BME280;34643;47.964;7.982;2023-02-19T04:33:02;97331.88;;;17.77;61.24
48390;BME280;34643;47.964;7.982;2023-02-19T04:38:02;97337.19;;;17.76;61.10
48390;BME280;34643;47.964;7.982;2023-02-19T04:43:02;97325.81;;;17.77;61.11
48390;BME280;34643;47.964;7.982;2023-02-19T04:48:03;97320.69;;;17.75;61.33
48390;BME280;34643;47.964;7.982;2023-02-19T04:53:03;97328.31;;;17.78;61.28
48390;BME280;34643;47.964;7.982;2023-02-19T04:58:04;97335.31;;;17.78;61.45
48390;BME280;34643;47.964;7.982;2023-02-19T05:03:04;97345.56;;;17.81;61.46
48390;BME280;34643;47.964;7.982;2023-02-19T05:08:04;97347.44;;;17.79;61.64
48390;BME280;34643;47.964;7.982;2023-02-19T05:13:05;97359.53;;;17.80;61.52
48390;BME280;34643;47.964;7.982;2023-02-19T05:18:05;97347.22;;;17.82;61.80
48390;BME280;34643;47.964;7.982;2023-02-19T05:23:05;97358.59;;;17.81;61.54
48390;BME280;34643;47.964;7.982;2023-02-19T05:28:05;97377.81;;;17.80;61.90
48390;BME280;34643;47.964;7.982;2023-02-19T05:33:18;97382.09;;;17.81;61.72
48390;BME280;34643;47.964;7.982;2023-02-19T05:38:19;97369.97;;;17.80;61.82
48390;BME280;34643;47.964;7.982;2023-02-19T05:43:19;97390.31;;;17.89;61.64
48390;BME280;34643;47.964;7.982;2023-02-19T05:48:19;97388.09;;;17.96;61.63
48390;BME280;34643;47.964;7.982;2023-02-19T05:53:20;97393.34;;;18.09;61.53
48390;BME280;34643;47.964;7.982;2023-02-19T05:58:20;97406.19;;;18.12;61.38
48390;BME280;34643;47.964;7.982;2023-02-19T06:03:21;97402.84;;;18.22;61.26
48390;BME280;34643;47.964;7.982;2023-02-19T06:08:21;97393.47;;;18.20;60.94
48390;BME280;34643;47.964;7.982;2023-02-19T06:13:21;97404.09;;;18.17;61.34
48390;BME280;34643;47.964;7.982;2023-02-19T06:18:22;97398.97;;;18.15;61.26
48390;BME280;34643;47.964;7.982;2023-02-19T06:23:22;97422.28;;;18.05;61.48
48390;BME280;34643;47.964;7.982;2023-02-19T06:28:22;97440.47;;;18.07;61.56
48390;BME280;34643;47.964;7.982;2023-02-19T06:33:22;97432.94;;;18.15;61.34
48390;BME280;34643;47.964;7.982;2023-02-19T06:38:23;97446.63;;;18.19;61.36
48390;BME280;34643;47.964;7.982;2023-02-19T06:43:23;97444.78;;;18.21;61.35
48390;BME280;34643;47.964;7.982;2023-02-19T06:48:23;97458.78;;;18.20;61.52
48390;BME280;34643;47.964;7.982;2023-02-19T06:53:24;97452.09;;;18.29;61.01
48390;BME280;34643;47.964;7.982;2023-02-19T06:58:25;97469.22;;;18.20;61.23
48390;BME280;34643;47.964;7.982;2023-02-19T07:03:25;97472.66;;;18.20;61.27
48390;BME280;34643;47.964;7.982;2023-02-19T07:08:25;97471.84;;;18.20;61.16
48390;BME280;34643;47.964;7.982;2023-02-19T07:13:26;97482.81;;;18.25;60.48
48390;BME280;34643;47.964;7.982;2023-02-19T07:18:27;97493.28;;;18.25;60.39
48390;BME280;34643;47.964;7.982;2023-02-19T07:23:27;97500.38;;;18.23;60.40
48390;BME280;34643;47.964;7.982;2023-02-19T07:28:27;97511.56;;;18.25;60.19
48390;BME280;34643;47.964;7.982;2023-02-19T07:33:27;97513.22;;;18.26;60.13
48390;BME280;34643;47.964;7.982;2023-02-19T07:38:28;97528.28;;;18.22;60.04
48390;BME280;34643;47.964;7.982;2023-02-19T07:43:29;97535.19;;;18.23;60.18
48390;BME280;34643;47.964;7.982;2023-02-19T07:48:30;97544.06;;;18.21;60.00
48390;BME280;34643;47.964;7.982;2023-02-19T07:53:31;97555.47;;;18.20;60.02
48390;BME280;34643;47.964;7.982;2023-02-19T07:58:32;97565.91;;;18.20;59.56
48390;BME280;34643;47.964;7.982;2023-02-19T08:03:33;97565.91;;;18.20;59.54
48390;BME280;34643;47.964;7.982;2023-02-19T08:08:34;97576.44;;;18.18;59.25
48390;BME280;34643;47.964;7.982;2023-02-19T08:13:34;97585.13;;;18.19;59.24
48390;BME280;34643;47.964;7.982;2023-02-19T08:18:34;97587.97;;;18.16;59.15
48390;BME280;34643;47.964;7.982;2023-02-19T08:23:35;97597.53;;;18.15;59.21
48390;BME280;34643;47.964;7.982;2023-02-19T08:28:35;97603.00;;;18.12;58.98
48390;BME280;34643;47.964;7.982;2023-02-19T08:33:35;97611.13;;;18.08;59.02
48390;BME280;34643;47.964;7.982;2023-02-19T08:38:36;97623.34;;;18.07;58.94
48390;BME280;34643;47.964;7.982;2023-02-19T08:43:37;97628.56;;;18.07;58.84
48390;BME280;34643;47.964;7.982;2023-02-19T08:48:38;97616.75;;;18.01;58.83
48390;BME280;34643;47.964;7.982;2023-02-19T08:53:38;97625.59;;;17.99;59.12
48390;BME280;34643;47.964;7.982;2023-02-19T08:58:39;97625.59;;;17.99;58.79
48390;BME280;34643;47.964;7.982;2023-02-19T09:03:40;97627.34;;;18.13;58.39
48390;BME280;34643;47.964;7.982;2023-02-19T09:08:41;97635.28;;;18.11;58.21
48390;BME280;34643;47.964;7.982;2023-02-19T09:13:41;97637.75;;;18.27;58.40
48390;BME280;34643;47.964;7.982;2023-02-19T09:18:42;97645.91;;;18.08;58.90
48390;BME280;34643;47.964;7.982;2023-02-19T09:23:44;97648.09;;;18.01;59.24
48390;BME280;34643;47.964;7.982;2023-02-19T09:28:51;97651.81;;;17.97;59.09
48390;BME280;34643;47.964;7.982;2023-02-19T09:33:51;97649.28;;;17.96;58.96
48390;BME280;34643;47.964;7.982;2023-02-19T09:38:51;97658.16;;;17.93;58.98
48390;BME280;34643;47.964;7.982;2023-02-19T09:43:52;97638.28;;;17.91;58.84
48390;BME280;34643;47.964;7.982;2023-02-19T09:48:52;97633.19;;;17.89;58.82
48390;BME280;34643;47.964;7.982;2023-02-19T09:53:54;97624.59;;;18.01;58.32
48390;BME280;34643;47.964;7.982;2023-02-19T09:58:56;97637.91;;;17.97;58.43
48390;BME280;34643;47.964;7.982;2023-02-19T10:03:57;97623.63;;;18.02;58.54
48390;BME280;34643;47.964;7.982;2023-02-19T10:09:21;97630.13;;;18.10;58.36
48390;BME280;34643;47.964;7.982;2023-02-19T10:14:41;97632.16;;;18.19;58.46
48390;BME280;34643;47.964;7.982;2023-02-19T10:19:39;97634.38;;;18.25;58.50
48390;BME280;34643;47.964;7.982;2023-02-19T10:24:40;97633.16;;;18.31;58.49
48390;BME280;34643;47.964;7.982;2023-02-19T10:29:41;97633.06;;;18.32;58.46
48390;BME280;34643;47.964;7.982;2023-02-19T10:34:42;97640.47;;;18.38;58.12
48390;BME280;34643;47.964;7.982;2023-02-19T10:39:46;97638.41;;;18.43;58.15
48390;BME280;34643;47.964;7.982;2023-02-19T10:44:50;97653.06;;;18.46;58.15
48390;BME280;34643;47.964;7.982;2023-02-19T10:49:54;97662.91;;;18.42;58.37
48390;BME280;34643;47.964;7.982;2023-02-19T11:00:27;97669.78;;;18.43;58.11
48390;BME280;34643;47.964;7.982;2023-02-19T11:05:29;97677.94;;;18.39;57.89
48390;BME280;34643;47.964;7.982;2023-02-19T11:15:31;97673.25;;;18.44;56.95
48390;BME280;34643;47.964;7.982;2023-02-19T11:20:32;97674.47;;;18.38;57.19
48390;BME280;34643;47.964;7.982;2023-02-19T11:25:32;97684.19;;;18.36;57.23
48390;BME280;34643;47.964;7.982;2023-02-19T11:30:40;97684.69;;;18.29;57.20
48390;BME280;34643;47.964;7.982;2023-02-19T11:35:40;97679.78;;;18.37;56.96
48390;BME280;34643;47.964;7.982;2023-02-19T11:41:03;97667.94;;;18.31;57.09
48390;BME280;34643;47.964;7.982;2023-02-19T11:56:18;97650.16;;;18.23;57.25
48390;BME280;34643;47.964;7.982;2023-02-19T12:01:22;97644.47;;;18.17;57.18
48390;BME280;34643;47.964;7.982;2023-02-19T12:42:39;97658.00;;;17.96;57.49
48390;BME280;34643;47.964;7.982;2023-02-19T12:47:46;97661.53;;;17.95;57.39
48390;BME280;34643;47.964;7.982;2023-02-19T12:52:54;97666.84;;;17.94;57.38
48390;BME280;34643;47.964;7.982;2023-02-19T12:57:57;97646.91;;;17.93;57.29
48390;BME280;34643;47.964;7.982;2023-02-19T13:03:08;97637.66;;;17.87;57.35
48390;BME280;34643;47.964;7.982;2023-02-19T13:08:12;97637.66;;;17.87;57.28
48390;BME280;34643;47.964;7.982;2023-02-19T13:13:18;97644.72;;;17.85;57.48
48390;BME280;34643;47.964;7.982;2023-02-19T13:18:23;97635.22;;;17.84;57.41
48390;BME280;34643;47.964;7.982;2023-02-19T13:28:48;97641.38;;;17.83;57.41
48390;BME280;34643;47.964;7.982;2023-02-19T13:38:59;97638.00;;;17.81;57.12
48390;BME280;34643;47.964;7.982;2023-02-19T13:44:04;97632.88;;;17.79;57.15
48390;BME280;34643;47.964;7.982;2023-02-19T13:54:31;97621.59;;;17.79;57.01
48390;BME280;34643;47.964;7.982;2023-02-19T13:59:36;97624.59;;;17.73;57.20
48390;BME280;34643;47.964;7.982;2023-02-19T14:09:50;97628.16;;;17.72;57.22
48390;BME280;34643;47.964;7.982;2023-02-19T14:20:01;97638.97;;;17.65;57.24
48390;BME280;34643;47.964;7.982;2023-02-19T14:25:04;97631.13;;;17.65;57.12
48390;BME280;34643;47.964;7.982;2023-02-19T14:30:08;97628.72;;;17.62;57.15
48390;BME280;34643;47.964;7.982;2023-02-19T14:35:20;97638.41;;;17.60;57.35
48390;BME280;34643;47.964;7.982;2023-02-19T14:40:29;97633.38;;;17.57;57.26
48390;BME280;34643;47.964;7.982;2023-02-19T14:45:35;97640.56;;;17.54;57.26
48390;BME280;34643;47.964;7.982;2023-02-19T14:50:37;97652.75;;;17.53;57.40
48390;BME280;34643;47.964;7.982;2023-02-19T14:55:39;97652.03;;;17.51;57.43
48390;BME280;34643;47.964;7.982;2023-02-19T15:00:42;97655.59;;;17.50;57.28
48390;BME280;34643;47.964;7.982;2023-02-19T15:05:42;97660.88;;;17.48;57.41
48390;BME280;34643;47.964;7.982;2023-02-19T15:10:44;97665.38;;;17.46;57.48
48390;BME280;34643;47.964;7.982;2023-02-19T15:15:45;97674.84;;;17.47;57.38
48390;BME280;34643;47.964;7.982;2023-02-19T15:20:45;97672.44;;;17.44;57.30
48390;BME280;34643;47.964;7.982;2023-02-19T15:25:46;97671.59;;;17.44;57.41
48390;BME280;34643;47.964;7.982;2023-02-19T15:30:48;97672.63;;;17.41;57.15
48390;BME280;34643;47.964;7.982;2023-02-19T15:35:49;97667.50;;;17.40;57.07
48390;BME280;34643;47.964;7.982;2023-02-19T15:40:50;97683.16;;;17.40;57.19
48390;BME280;34643;47.964;7.982;2023-02-19T15:45:52;97683.34;;;17.37;57.27
48390;BME280;34643;47.964;7.982;2023-02-19T15:50:56;97683.44;;;17.35;57.21
48390;BME280;34643;47.964;7.982;2023-02-19T15:56:06;97691.16;;;17.37;57.19
48390;BME280;34643;47.964;7.982;2023-02-19T16:06:16;97704.22;;;17.51;56.71
48390;BME280;34643;47.964;7.982;2023-02-19T16:21:24;97721.56;;;17.52;56.79
48390;BME280;34643;47.964;7.982;2023-02-19T16:26:25;97722.41;;;17.53;56.88
48390;BME280;34643;47.964;7.982;2023-02-19T16:31:27;97724.94;;;17.54;56.98
48390;BME280;34643;47.964;7.982;2023-02-19T16:46:32;97734.47;;;17.55;57.18
48390;BME280;34643;47.964;7.982;2023-02-19T16:51:32;97734.47;;;17.55;57.14
48390;BME280;34643;47.964;7.982;2023-02-19T16:56:32;97753.38;;;17.59;56.92
48390;BME280;34643;47.964;7.982;2023-02-19T17:01:33;97754.56;;;17.53;57.14
48390;BME280;34643;47.964;7.982;2023-02-19T17:06:34;97752.72;;;17.55;57.11
48390;BME280;34643;47.964;7.982;2023-02-19T17:11:36;97747.22;;;17.60;57.04
48390;BME280;34643;47.964;7.982;2023-02-19T17:16:37;97748.59;;;17.65;57.39
48390;BME280;34643;47.964;7.982;2023-02-19T17:21:40;97740.03;;;17.63;57.32
48390;BME280;34643;47.964;7.982;2023-02-19T17:26:41;97734.81;;;17.63;57.50
48390;BME280;34643;47.964;7.982;2023-02-19T17:31:41;97739.13;;;17.64;57.40
48390;BME280;34643;47.964;7.982;2023-02-19T17:36:41;97753.84;;;17.65;57.31
48390;BME280;34643;47.964;7.982;2023-02-19T17:41:44;97747.94;;;17.62;57.53
48390;BME280;34643;47.964;7.982;2023-02-19T17:46:45;97759.06;;;17.65;57.92
48390;BME280;34643;47.964;7.982;2023-02-19T17:51:46;97741.91;;;17.61;58.33
48390;BME280;34643;47.964;7.982;2023-02-19T17:56:50;97761.09;;;17.60;58.20
48390;BME280;34643;47.964;7.982;2023-02-19T18:01:50;97754.56;;;17.67;58.79
48390;BME280;34643;47.964;7.982;2023-02-19T18:06:50;97765.13;;;17.66;58.82
48390;BME280;34643;47.964;7.982;2023-02-19T18:11:54;97760.56;;;17.70;58.73
48390;BME280;34643;47.964;7.982;2023-02-19T18:16:54;97766.44;;;17.73;58.84
48390;BME280;34643;47.964;7.982;2023-02-19T18:21:54;97764.00;;;17.70;59.31
48390;BME280;34643;47.964;7.982;2023-02-19T18:26:55;97759.63;;;17.71;58.83
48390;BME280;34643;47.964;7.982;2023-02-19T18:31:55;97767.44;;;17.71;58.62
48390;BME280;34643;47.964;7.982;2023-02-19T18:36:55;97767.63;;;17.67;58.66
48390;BME280;34643;47.964;7.982;2023-02-19T18:41:56;97762.22;;;17.71;58.59
48390;BME280;34643;47.964;7.982;2023-02-19T18:46:57;97767.44;;;17.71;58.49
48390;BME280;34643;47.964;7.982;2023-02-19T18:51:57;97766.63;;;17.70;58.34
48390;BME280;34643;47.964;7.982;2023-02-19T18:57:01;97788.44;;;17.69;58.20
48390;BME280;34643;47.964;7.982;2023-02-19T19:02:02;97782.28;;;17.70;58.08
48390;BME280;34643;47.964;7.982;2023-02-19T19:07:05;97777.91;;;17.71;58.12
48390;BME280;34643;47.964;7.982;2023-02-19T19:12:05;97790.28;;;17.67;57.91
48390;BME280;34643;47.964;7.982;2023-02-19T19:17:06;97792.06;;;17.66;58.12
48390;BME280;34643;47.964;7.982;2023-02-19T19:22:06;97812.13;;;17.66;57.91
48390;BME280;34643;47.964;7.982;2023-02-19T19:27:06;97810.53;;;17.63;57.89
48390;BME280;34643;47.964;7.982;2023-02-19T19:32:07;97818.34;;;17.63;57.69
48390;BME280;34643;47.964;7.982;2023-02-19T19:37:07;97816.69;;;17.62;57.59
48390;BME280;34643;47.964;7.982;2023-02-19T19:42:07;97821.13;;;17.60;57.79
48390;BME280;34643;47.964;7.982;2023-02-19T19:47:08;97818.72;;;17.57;57.84
48390;BME280;34643;47.964;7.982;2023-02-19T19:52:09;97822.44;;;17.53;57.56
48390;BME280;34643;47.964;7.982;2023-02-19T19:57:09;97826.91;;;17.51;57.94
48390;BME280;34643;47.964;7.982;2023-02-19T20:02:10;97848.75;;;17.50;57.75
48390;BME280;34643;47.964;7.982;2023-02-19T20:07:10;97858.41;;;17.48;57.67
48390;BME280;34643;47.964;7.982;2023-02-19T20:12:11;97866.34;;;17.46;57.58
48390;BME280;34643;47.964;7.982;2023-02-19T20:17:12;97862.13;;;17.44;57.63
48390;BME280;34643;47.964;7.982;2023-02-19T20:22:12;97853.53;;;17.42;57.65
48390;BME280;34643;47.964;7.982;2023-02-19T20:27:12;97852.72;;;17.41;57.70
48390;BME280;34643;47.964;7.982;2023-02-19T20:32:13;97853.81;;;17.37;57.74
48390;BME280;34643;47.964;7.982;2023-02-19T20:37:14;97858.19;;;17.37;57.69
48390;BME280;34643;47.964;7.982;2023-02-19T20:42:14;97864.91;;;17.41;57.54
48390;BME280;34643;47.964;7.982;2023-02-19T20:47:15;97870.91;;;17.43;57.29
48390;BME280;34643;47.964;7.982;2023-02-19T20:52:16;97874.44;;;17.42;57.47
48390;BME280;34643;47.964;7.982;2023-02-19T20:57:17;97876.88;;;17.45;57.56
48390;BME280;34643;47.964;7.982;2023-02-19T21:02:22;97869.78;;;17.47;57.21
48390;BME280;34643;47.964;7.982;2023-02-19T21:07:23;97864.56;;;17.47;57.55
48390;BME280;34643;47.964;7.982;2023-02-19T21:12:23;97845.47;;;17.46;57.51
48390;BME280;34643;47.964;7.982;2023-02-19T21:17:24;97853.19;;;17.48;57.61
48390;BME280;34643;47.964;7.982;2023-02-19T21:22:24;97849.72;;;17.47;57.42
48390;BME280;34643;47.964;7.982;2023-02-19T21:27:24;97845.19;;;17.51;57.59
48390;BME280;34643;47.964;7.982;2023-02-19T21:32:24;97834.75;;;17.51;57.35
48390;BME280;34643;47.964;7.982;2023-02-19T21:37:25;97851.34;;;17.50;57.42
48390;BME280;34643;47.964;7.982;2023-02-19T21:42:25;97858.16;;;17.53;57.35
48390;BME280;34643;47.964;7.982;2023-02-19T21:47:25;97860.00;;;17.51;57.38
48390;BME280;34643;47.964;7.982;2023-02-19T21:52:28;97866.06;;;17.51;57.58
48390;BME280;34643;47.964;7.982;2023-02-19T21:57:31;97872.97;;;17.52;57.43
48390;BME280;34643;47.964;7.982;2023-02-19T22:02:31;97879.13;;;17.51;57.51
48390;BME280;34643;47.964;7.982;2023-02-19T22:07:32;97875.75;;;17.49;57.49
48390;BME280;34643;47.964;7.982;2023-02-19T22:12:32;97883.59;;;17.49;57.40
48390;BME280;34643;47.964;7.982;2023-02-19T22:17:32;97882.75;;;17.48;57.53
48390;BME280;34643;47.964;7.982;2023-02-19T22:22:32;97876.78;;;17.46;57.55
48390;BME280;34643;47.964;7.982;2023-02-19T22:27:33;97868.94;;;17.46;57.38
48390;BME280;34643;47.964;7.982;2023-02-19T22:32:33;97862.88;;;17.46;57.28
48390;BME280;34643;47.964;7.982;2023-02-19T22:37:33;97855.31;;;17.41;57.23
48390;BME280;34643;47.964;7.982;2023-02-19T22:42:33;97855.25;;;17.43;57.33
48390;BME280;34643;47.964;7.982;2023-02-19T22:47:34;97848.56;;;17.37;57.29
48390;BME280;34643;47.964;7.982;2023-02-19T22:52:34;97856.41;;;17.37;57.38
48390;BME280;34643;47.964;7.982;2023-02-19T22:57:34;97866.97;;;17.36;57.34
48390;BME280;34643;47.964;7.982;2023-02-19T23:02:35;97874.13;;;17.32;57.46
48390;BME280;34643;47.964;7.982;2023-02-19T23:07:35;97889.88;;;17.31;57.53
48390;BME280;34643;47.964;7.982;2023-02-19T23:12:36;97894.22;;;17.30;57.42
48390;BME280;34643;47.964;7.982;2023-02-19T23:17:37;97903.16;;;17.26;57.42
48390;BME280;34643;47.964;7.982;2023-02-19T23:22:37;97907.53;;;17.25;57.11
48390;BME280;34643;47.964;7.982;2023-02-19T23:27:37;97918.97;;;17.23;57.29
48390;BME280;34643;47.964;7.982;2023-02-19T23:32:38;97908.72;;;17.20;57.44
48390;BME280;34643;47.964;7.982;2023-02-19T23:37:38;97906.22;;;17.18;57.28
48390;BME280;34643;47.964;7.982;2023-02-19T23:42:38;97901.00;;;17.18;57.40
48390;BME280;34643;47.964;7.982;2023-02-19T23:47:38;97904.59;;;17.16;57.21
48390;BME280;34643;47.964;7.982;2023-02-19T23:52:39;97906.44;;;17.14;57.52
48390;BME280;34643;47.964;7.982;2023-02-19T23:57:39;97915.22;;;17.13;57.27
